Airfield :
LOGIN :

Register | Disclaimer

   EN    FR    IT 

 










Legend :    VFR   Marginal VFR   IFR   Intensive IFR   Very Intensive IFR
Visi :
Ceiling :
>= 8 km
>= 3000ft
5 to 8 km
1000 to 3000 ft
1500m to 5 km
500 to 1000 ft
800 to 1500m
200 to 500 ft
< 800m
< 200 ft
Symbols :   Thunderstorms  Fog  Heavy snow  Heavy precipitations  Wind > 20 kt
SIGMETs :     Misc.  Thunderstorms  Icing  Turbulence  Mountain Waves  Volcanic Ashes







- Airport Elevation : 622 ft
- IATA code : BRS
- Download approach charts


EGGD - Bristol Int.

CURRENT METAR :
  • 231420Z AUTO 27012KT 9999 BKN010 OVC034 17/14 Q1023

EXPIRED METARs :
  • 231350Z AUTO 26012KT 9999 BKN008 17/14 Q1023
  • 231320Z AUTO 26012KT 9999 BKN008 OVC012 16/14 Q1023
  • 231250Z 26012KT 9999 FEW001 SCT004 BKN008 16/15 Q1023
  • 231220Z 25009KT 9999 FEW001 SCT003 BKN006 15/15 Q1023
  • 231150Z AUTO 26009KT 4900 BR OVC001 14/14 Q1023

TAF AMD TAF EGGD
Valid from the 23 at 14:00 until the 24 at 12:00 UTC


231423Z 2314/2412 26010KT 9999 BKN008
TEMPO 2314/2319 SCT008 BKN015
PROB30
TEMPO 2314/2318 3000 BR BKN003
BECMG 2318/2321 3000 BR BKN003
TEMPO 2319/2408 0300 FG DZ BKN001
BECMG 2403/2406 VRB03KT
BECMG 2407/2409 9999 NSW SCT020
ATIS : +44 1275 473 666
No reported NOTAMs for that airfield.



MET'MAP, your aeronautical weather chart ! - Copyright ORBIFLY December 2007 - Disclaimer

ORBIFLY MET'MAP TEAM :

Programming & Development : Alexandra Zaïnal
Concept & Development : Baudouin d'Aumeries
Co-Development & Prog : Marc-Olivier Méhu
Technical & hardware support : Manuel Goepfert

Contact : metmap@orbifly.com




SOURCES & CREDITS :

   NOAA